Time;durP1;ratioP1;P1;durP2;ratioP2;P2;SDS_P1;SDS_P2;PMS_P1;PMS_P2;Temp;Humidity;BMP_temperature;BMP_pressure;BME280_temperature;BME280_humidity;BME280_pressure;Samples;Min_cycle;Max_cycle;Signal;HPM_P1;HPM_P2
2022/07/21 00:00:25;;;;;;;4.55;2.90;;;;;;;28.01;38.62;100935.88;5071840;28;20041;-78
2022/07/21 00:02:54;;;;;;;3.65;3.10;;;;;;;27.93;39.42;100937.00;5070967;28;20479;-78
2022/07/21 00:05:24;;;;;;;5.32;2.65;;;;;;;27.94;39.12;100924.56;5070580;28;20056;-78
2022/07/21 00:07:53;;;;;;;4.18;2.92;;;;;;;27.93;38.11;100917.31;5021065;28;20057;-79
2022/07/21 00:10:23;;;;;;;3.08;2.78;;;;;;;28.03;37.80;100916.56;5075786;28;20047;-79
2022/07/21 00:12:52;;;;;;;3.92;2.75;;;;;;;27.91;38.46;100920.53;5075086;28;20051;-79
2022/07/21 00:15:22;;;;;;;6.53;2.85;;;;;;;27.88;40.67;100927.75;5074795;28;20049;-79
2022/07/21 00:17:51;;;;;;;4.00;2.60;;;;;;;27.89;38.07;100918.13;5074539;28;20041;-79
2022/07/21 00:20:20;;;;;;;3.95;2.40;;;;;;;27.84;39.07;100909.22;5074714;28;20049;-78
2022/07/21 00:22:48;;;;;;;3.28;2.97;;;;;;;27.81;38.53;100904.41;5075408;28;20036;-78
2022/07/21 00:25:16;;;;;;;3.22;2.50;;;;;;;27.92;38.44;100908.09;5074892;28;20056;-79
2022/07/21 00:27:44;;;;;;;2.65;2.45;;;;;;;27.83;38.66;100914.06;5072109;28;20505;-78
2022/07/21 00:30:13;;;;;;;8.63;2.92;;;;;;;27.83;39.16;100902.00;5075419;28;20509;-79
2022/07/21 00:32:42;;;;;;;6.03;3.13;;;;;;;27.79;39.65;100903.97;5074816;28;20053;-79
2022/07/21 00:35:11;;;;;;;3.00;2.80;;;;;;;27.70;40.02;100907.16;5024788;28;20048;-78
2022/07/21 00:37:40;;;;;;;3.78;3.35;;;;;;;27.60;39.92;100911.47;5056779;28;20052;-78
2022/07/21 00:40:09;;;;;;;4.60;3.45;;;;;;;27.44;40.73;100914.53;5074355;28;20402;-79
2022/07/21 00:42:37;;;;;;;4.18;3.15;;;;;;;27.28;40.95;100906.38;5075346;28;20052;-78
2022/07/21 00:45:06;;;;;;;5.57;3.20;;;;;;;27.20;41.52;100902.69;5057282;28;20040;-78
2022/07/21 00:47:35;;;;;;;5.05;3.03;;;;;;;27.14;41.37;100907.06;5074209;28;20052;-78
2022/07/21 00:50:08;;;;;;;3.20;2.90;;;;;;;27.16;40.11;100907.47;5075042;28;20036;-78
2022/07/21 00:52:36;;;;;;;4.75;2.90;;;;;;;27.25;40.31;100913.56;5073824;28;20061;-79
2022/07/21 00:55:06;;;;;;;4.47;3.20;;;;;;;27.41;40.37;100913.31;5057136;28;20044;-79
2022/07/21 00:57:35;;;;;;;7.50;3.65;;;;;;;27.34;41.48;100918.88;5073797;28;20533;-78
2022/07/21 01:00:06;;;;;;;3.65;3.30;;;;;;;27.22;41.84;100925.59;5074871;28;20040;-79
2022/07/21 01:02:36;;;;;;;3.80;3.33;;;;;;;27.03;42.85;100913.38;5074926;28;20049;-79
2022/07/21 01:05:06;;;;;;;3.88;3.40;;;;;;;26.91;43.48;100908.84;5074059;28;20059;-79
2022/07/21 01:07:34;;;;;;;4.05;3.40;;;;;;;26.84;43.72;100911.56;5074656;28;20048;-79
2022/07/21 01:10:02;;;;;;;4.78;3.88;;;;;;;26.73;44.60;100917.03;5073873;28;20049;-79
2022/07/21 01:12:31;;;;;;;4.95;3.83;;;;;;;26.81;44.49;100909.50;5074549;28;20474;-78
2022/07/21 01:14:59;;;;;;;6.05;3.97;;;;;;;26.75;44.55;100916.66;5074607;28;20402;-79
2022/07/21 01:17:27;;;;;;;5.68;4.20;;;;;;;26.84;44.29;100917.97;5074453;28;20044;-80
2022/07/21 01:19:55;;;;;;;8.15;4.38;;;;;;;26.92;44.11;100923.69;5073704;28;20052;-80
2022/07/21 01:22:23;;;;;;;5.38;4.60;;;;;;;26.92;44.12;100924.50;5073563;28;20056;-80
2022/07/21 01:24:50;;;;;;;7.07;3.83;;;;;;;26.47;45.68;100927.16;5073225;28;20505;-79
2022/07/21 01:27:18;;;;;;;4.47;3.78;;;;;;;26.42;45.89;100931.13;5073824;28;20048;-79
2022/07/21 01:29:46;;;;;;;5.15;4.05;;;;;;;26.35;45.86;100925.44;5073931;28;20052;-79
2022/07/21 01:32:14;;;;;;;5.78;4.65;;;;;;;26.14;46.57;100928.69;5074297;28;20055;-79
2022/07/21 01:34:41;;;;;;;7.28;4.13;;;;;;;26.05;46.61;100928.97;5074231;28;20040;-79
2022/07/21 01:37:09;;;;;;;4.53;4.05;;;;;;;26.00;46.87;100924.50;5073112;28;20040;-79
2022/07/21 01:42:24;;;;;;;5.78;4.30;;;;;;;26.01;46.89;100914.09;5073493;28;20053;-79
2022/07/21 01:44:52;;;;;;;5.57;3.80;;;;;;;26.20;46.59;100912.34;5055761;28;20395;-79
2022/07/21 01:47:22;;;;;;;5.00;3.45;;;;;;;26.29;46.44;100922.13;5073123;28;20055;-79
2022/07/21 01:49:50;;;;;;;4.72;4.00;;;;;;;26.35;46.13;100921.78;5074033;28;20036;-79
2022/07/21 01:52:18;;;;;;;7.95;3.40;;;;;;;26.49;45.74;100919.16;5073997;28;20406;-79
2022/07/21 01:54:46;;;;;;;6.22;3.60;;;;;;;26.41;45.71;100917.47;5073888;28;20052;-79
2022/07/21 01:57:14;;;;;;;5.15;3.80;;;;;;;26.29;46.39;100910.09;5072757;28;20052;-79
2022/07/21 01:59:42;;;;;;;7.43;3.83;;;;;;;26.28;45.96;100902.88;5073732;28;20045;-79
2022/07/21 02:02:10;;;;;;;7.63;3.97;;;;;;;26.26;46.38;100911.69;5073769;28;20040;-79
2022/07/21 02:04:38;;;;;;;5.45;3.88;;;;;;;26.19;46.52;100914.34;5073787;28;20045;-79
2022/07/21 02:07:06;;;;;;;7.05;4.25;;;;;;;26.04;46.78;100916.13;5073569;28;20649;-79
2022/07/21 02:09:35;;;;;;;7.43;4.22;;;;;;;26.10;46.51;100909.00;5072192;28;20045;-79
2022/07/21 02:12:04;;;;;;;6.70;3.50;;;;;;;26.03;46.31;100909.75;5073633;28;20048;-79
2022/07/21 02:14:32;;;;;;;5.22;3.83;;;;;;;25.92;46.56;100914.38;5073616;28;20513;-79
2022/07/21 02:16:59;;;;;;;3.72;3.42;;;;;;;26.00;46.39;100907.69;5072516;28;20063;-79
2022/07/21 02:19:28;;;;;;;4.63;3.75;;;;;;;25.93;46.21;100907.59;5073442;28;20044;-79
2022/07/21 02:21:55;;;;;;;7.20;3.67;;;;;;;25.83;47.09;100905.44;5073348;28;20067;-79
2022/07/21 02:24:25;;;;;;;5.32;3.85;;;;;;;25.80;46.99;100909.00;5073263;28;20051;-78
2022/07/21 02:26:52;;;;;;;4.53;4.00;;;;;;;25.65;47.01;100905.97;5073203;28;20041;-79
2022/07/21 02:29:20;;;;;;;4.57;3.97;;;;;;;25.69;47.22;100906.00;5054390;28;20049;-79
2022/07/21 02:31:48;;;;;;;5.18;3.55;;;;;;;25.81;46.54;100908.59;5071605;28;20410;-79
2022/07/21 02:34:17;;;;;;;4.13;3.72;;;;;;;25.85;46.68;100900.28;5072086;28;20044;-79
2022/07/21 02:36:45;;;;;;;4.68;4.05;;;;;;;25.80;46.78;100903.41;5072950;28;20139;-79
2022/07/21 02:39:13;;;;;;;7.90;4.53;;;;;;;25.64;47.77;100904.34;5073138;28;20041;-79
2022/07/21 02:41:41;;;;;;;7.60;4.57;;;;;;;25.60;47.42;100909.06;5072263;28;20051;-79
2022/07/21 02:44:08;;;;;;;9.40;5.40;;;;;;;25.56;47.42;100903.41;5073110;28;20071;-79
2022/07/21 02:46:36;;;;;;;9.23;6.00;;;;;;;25.56;47.59;100899.81;5072295;28;20483;-79
2022/07/21 02:49:04;;;;;;;8.23;5.75;;;;;;;25.45;47.87;100897.63;5072880;28;20052;-79
2022/07/21 02:51:32;;;;;;;10.77;6.28;;;;;;;25.39;47.99;100899.13;5072679;28;20052;-79
2022/07/21 02:54:00;;;;;;;8.32;5.60;;;;;;;25.35;48.24;100885.06;5069640;28;20059;-79
2022/07/21 02:56:28;;;;;;;8.23;6.30;;;;;;;25.33;48.44;100887.41;5067758;28;20060;-79
2022/07/21 02:58:55;;;;;;;8.02;5.97;;;;;;;25.30;49.45;100887.34;5070679;28;20040;-79
2022/07/21 03:01:23;;;;;;;9.60;6.03;;;;;;;25.34;48.22;100882.63;5072647;28;20045;-79
2022/07/21 03:03:51;;;;;;;7.57;5.22;;;;;;;25.38;48.12;100883.50;5071156;28;20049;-79
2022/07/21 03:06:19;;;;;;;8.25;5.35;;;;;;;25.42;48.16;100884.34;5072080;28;20051;-79
2022/07/21 03:08:47;;;;;;;6.70;5.70;;;;;;;25.69;47.39;100887.22;5071529;28;20041;-79
2022/07/21 03:11:15;;;;;;;7.28;5.65;;;;;;;25.77;47.76;100877.72;5072449;28;20048;-79
2022/07/21 03:13:43;;;;;;;7.40;5.57;;;;;;;25.73;47.65;100879.69;5071655;28;20055;-79
2022/07/21 03:16:11;;;;;;;9.35;6.68;;;;;;;25.61;47.95;100874.28;5072086;28;20052;-79
2022/07/21 03:18:41;;;;;;;7.60;6.18;;;;;;;25.54;48.04;100879.75;5072539;28;20055;-79
2022/07/21 03:21:09;;;;;;;8.02;5.88;;;;;;;25.43;48.69;100882.38;5071419;28;20049;-79
2022/07/21 03:23:36;;;;;;;6.72;5.72;;;;;;;25.39;48.69;100887.91;5071382;28;20059;-79
2022/07/21 03:26:04;;;;;;;7.57;5.70;;;;;;;25.47;48.16;100894.47;5072197;28;20044;-80
2022/07/21 03:28:32;;;;;;;8.02;5.22;;;;;;;25.44;48.31;100895.19;5072251;28;20045;-80
2022/07/21 03:31:00;;;;;;;8.02;5.20;;;;;;;25.39;48.36;100895.50;5070862;28;20502;-79
2022/07/21 03:33:28;;;;;;;6.65;5.40;;;;;;;25.33;48.48;100884.63;5054171;28;20410;-79
2022/07/21 03:35:58;;;;;;;9.68;5.75;;;;;;;25.22;48.95;100876.03;5071902;28;20040;-79
2022/07/21 03:38:26;;;;;;;9.85;5.47;;;;;;;25.12;49.73;100884.25;5072267;28;20052;-79
2022/07/21 03:40:54;;;;;;;7.68;5.18;;;;;;;25.06;49.49;100880.94;5072135;28;20525;-79
2022/07/21 03:43:22;;;;;;;6.88;5.07;;;;;;;25.08;49.36;100875.81;5071903;28;20037;-79
2022/07/21 03:45:50;;;;;;;8.23;5.60;;;;;;;25.07;49.18;100883.38;5072035;28;20048;-79
2022/07/21 03:48:18;;;;;;;7.55;5.18;;;;;;;25.09;49.03;100880.22;5070928;28;20059;-79
2022/07/21 03:50:45;;;;;;;7.78;4.80;;;;;;;25.20;48.26;100872.81;5070933;28;20490;-79
2022/07/21 03:53:13;;;;;;;13.73;5.43;;;;;;;25.15;48.89;100883.50;5071881;28;20060;-79
2022/07/21 03:55:41;;;;;;;7.35;5.07;;;;;;;25.21;48.46;100884.81;5054021;28;20043;-80
2022/07/21 03:58:09;;;;;;;5.47;4.97;;;;;;;25.15;49.22;100892.72;5071410;28;20055;-79
2022/07/21 04:00:41;;;;;;;7.72;5.07;;;;;;;25.17;49.13;100892.34;5071655;28;20476;-80
2022/07/21 04:03:11;;;;;;;7.18;4.95;;;;;;;25.30;48.84;100890.16;5070775;28;20064;-79
2022/07/21 04:05:40;;;;;;;6.40;5.18;;;;;;;25.36;48.76;100899.84;5071774;28;20402;-79
2022/07/21 04:08:10;;;;;;;5.70;4.68;;;;;;;25.28;48.93;100895.34;5071844;28;20041;-80
2022/07/21 04:10:41;;;;;;;7.13;5.30;;;;;;;25.07;49.65;100896.59;5070826;28;20044;-80
2022/07/21 04:13:12;;;;;;;6.80;5.28;;;;;;;25.12;49.94;100901.84;5071615;28;20048;-80
2022/07/21 04:15:40;;;;;;;7.47;5.55;;;;;;;25.17;49.88;100906.34;5071054;28;20055;-80
2022/07/21 04:18:08;;;;;;;11.88;6.20;;;;;;;25.13;50.25;100909.09;5071108;28;20037;-80
2022/07/21 04:20:36;;;;;;;12.68;5.80;;;;;;;25.14;50.36;100905.13;5052969;28;20499;-80
2022/07/21 04:23:04;;;;;;;8.55;5.63;;;;;;;25.08;50.65;100903.81;5071689;28;20048;-79
2022/07/21 04:25:32;;;;;;;9.52;6.22;;;;;;;25.07;51.24;100899.38;5070870;28;20045;-80
2022/07/21 04:28:00;;;;;;;14.75;6.32;;;;;;;25.37;50.06;100901.50;5071463;28;20048;-77
2022/07/21 04:30:28;;;;;;;8.93;5.65;;;;;;;25.72;48.57;100911.66;5071600;28;20119;-77
2022/07/21 04:32:56;;;;;;;9.65;4.93;;;;;;;25.88;48.13;100907.91;5053974;28;20044;-78
2022/07/21 04:35:24;;;;;;;7.45;4.78;;;;;;;26.12;47.44;100905.84;5065279;28;20045;-78
2022/07/21 04:37:52;;;;;;;7.72;5.30;;;;;;;26.20;46.93;100913.16;5064702;28;20048;-75
2022/07/21 04:40:20;;;;;;;16.05;5.75;;;;;;;26.36;46.55;100917.81;5053127;28;20048;-75
2022/07/21 04:42:48;;;;;;;6.95;5.22;;;;;;;26.43;46.49;100909.47;5070109;28;20063;-75
2022/07/21 04:45:16;;;;;;;7.13;5.18;;;;;;;26.59;45.81;100916.88;5068911;28;20051;-75
2022/07/21 04:47:48;;;;;;;9.98;5.30;;;;;;;26.55;45.85;100912.03;5070324;28;20052;-77
2022/07/21 04:50:17;;;;;;;8.27;5.18;;;;;;;26.85;45.19;100910.34;5065613;28;20049;-75
2022/07/21 04:53:02;;;;;;;8.20;5.80;;;;;;;26.93;45.07;100905.66;5066959;28;20059;-75
2022/07/21 04:55:40;;;;;;;8.55;6.00;;;;;;;27.09;44.27;100906.19;5045039;28;20495;-75
2022/07/21 04:58:07;;;;;;;10.55;6.28;;;;;;;27.08;43.94;100909.41;5071473;28;20048;-76
2022/07/21 05:00:35;;;;;;;8.35;5.88;;;;;;;27.21;43.73;100905.13;5072702;28;20390;-75
2022/07/21 05:03:03;;;;;;;8.75;5.65;;;;;;;27.34;43.33;100910.44;5071969;28;20098;-75
2022/07/21 05:05:31;;;;;;;7.60;5.60;;;;;;;27.34;43.18;100916.88;5072795;28;20616;-76
2022/07/21 05:07:59;;;;;;;7.25;5.50;;;;;;;27.33;43.26;100908.84;5067689;28;20032;-75
2022/07/21 05:10:27;;;;;;;8.88;5.40;;;;;;;27.43;42.93;100913.75;5068803;28;20067;-75
2022/07/21 05:12:55;;;;;;;7.80;5.70;;;;;;;27.31;43.05;100911.19;5062967;28;20052;-75
2022/07/21 05:15:23;;;;;;;6.90;5.50;;;;;;;27.41;43.13;100909.72;5070967;28;20045;-75
2022/07/21 05:17:50;;;;;;;10.10;6.28;;;;;;;27.56;42.87;100908.59;5068471;28;20049;-75
2022/07/21 05:20:18;;;;;;;10.43;6.05;;;;;;;27.63;42.34;100908.69;5070520;28;20055;-75
2022/07/21 05:22:46;;;;;;;9.38;6.97;;;;;;;27.73;42.34;100909.97;5069324;28;20044;-74
2022/07/21 05:25:14;;;;;;;9.80;6.70;;;;;;;27.79;42.23;100915.22;5075478;28;20044;-75
2022/07/21 05:27:42;;;;;;;10.35;6.43;;;;;;;27.70;42.71;100912.78;5066622;28;20485;-75
2022/07/21 05:30:11;;;;;;;11.00;7.13;;;;;;;27.82;42.11;100912.44;5072594;28;20060;-74
2022/07/21 05:32:39;;;;;;;12.23;7.15;;;;;;;27.79;42.40;100924.47;5074440;28;20383;-77
2022/07/21 05:35:15;;;;;;;11.20;6.90;;;;;;;27.85;42.41;100917.28;5048117;28;20045;-74
2022/07/21 05:37:43;;;;;;;11.82;6.80;;;;;;;27.95;42.26;100920.56;5066947;28;20053;-74
2022/07/21 05:40:11;;;;;;;14.07;6.90;;;;;;;27.98;41.84;100920.56;5071772;28;20052;-74
2022/07/21 05:42:42;;;;;;;11.60;5.82;;;;;;;28.20;42.00;100917.88;5072497;28;20526;-73
2022/07/21 05:45:11;;;;;;;8.60;6.07;;;;;;;28.32;41.68;100925.19;5060298;28;20040;-74
2022/07/21 05:47:40;;;;;;;6.50;5.50;;;;;;;28.29;40.66;100914.72;5072162;28;20047;-76
2022/07/21 05:50:09;;;;;;;8.10;5.85;;;;;;;28.40;41.17;100924.03;5072382;28;20051;-77
2022/07/21 05:52:37;;;;;;;8.43;5.25;;;;;;;28.33;41.25;100915.56;5071789;28;20048;-77
2022/07/21 05:55:06;;;;;;;5.90;4.78;;;;;;;28.46;40.77;100924.47;5069891;28;20048;-77
2022/07/21 05:57:34;;;;;;;8.50;5.15;;;;;;;28.51;40.23;100920.44;5071161;28;20418;-77
2022/07/21 06:00:03;;;;;;;6.75;5.30;;;;;;;28.81;39.65;100927.78;5070797;28;20053;-77
2022/07/21 06:02:59;;;;;;;9.60;5.80;;;;;;;29.13;39.08;100929.09;5063950;28;20036;-77
2022/07/21 06:05:26;;;;;;;9.43;5.95;;;;;;;29.37;38.33;100927.47;5036624;28;20033;-77
2022/07/21 06:07:54;;;;;;;8.80;5.50;;;;;;;29.40;37.88;100925.88;5070641;28;20041;-78
2022/07/21 06:10:22;;;;;;;7.55;5.10;;;;;;;29.50;38.32;100931.56;5069753;28;20395;-78
2022/07/21 06:12:56;;;;;;;7.63;5.72;;;;;;;29.73;37.57;100935.16;5065889;28;20386;-76
2022/07/21 06:15:23;;;;;;;9.80;4.95;;;;;;;29.80;37.99;100931.53;5070977;28;20067;-75
2022/07/21 06:17:51;;;;;;;10.18;5.18;;;;;;;29.84;37.26;100932.31;5054702;28;20386;-76
2022/07/21 06:20:20;;;;;;;11.15;5.20;;;;;;;29.85;37.08;100940.38;5071790;28;20044;-76
2022/07/21 06:22:48;;;;;;;9.77;5.03;;;;;;;29.97;37.34;100936.34;5072540;28;20052;-76
2022/07/21 06:25:16;;;;;;;5.72;4.97;;;;;;;29.98;37.18;100940.75;5071123;28;20057;-76
2022/07/21 06:27:44;;;;;;;7.85;5.07;;;;;;;30.00;37.26;100949.59;5071687;28;20056;-76
2022/07/21 06:30:12;;;;;;;9.60;4.90;;;;;;;30.06;37.41;100946.38;5070645;28;20056;-76
2022/07/21 06:32:40;;;;;;;7.18;5.00;;;;;;;30.14;37.19;100940.34;5071245;28;20056;-76
2022/07/21 06:35:09;;;;;;;5.95;4.80;;;;;;;30.27;36.56;100946.34;5070678;28;20048;-76
2022/07/21 06:37:37;;;;;;;5.63;4.53;;;;;;;30.32;37.01;100947.94;5070894;28;20394;-76
2022/07/21 06:40:05;;;;;;;6.50;4.60;;;;;;;30.30;34.42;100942.69;5070774;28;20044;-76
2022/07/21 06:42:33;;;;;;;5.03;3.97;;;;;;;30.35;35.01;100943.50;5070996;28;20403;-76
2022/07/21 06:45:01;;;;;;;6.50;4.40;;;;;;;30.45;35.35;100948.31;5070410;28;20055;-75
2022/07/21 06:47:29;;;;;;;6.20;4.40;;;;;;;30.39;33.53;100955.59;5070403;28;20048;-76
2022/07/21 06:50:02;;;;;;;7.47;4.53;;;;;;;30.50;33.18;100949.91;5046661;28;20406;-75
2022/07/21 06:52:34;;;;;;;3.60;3.28;;;;;;;30.64;32.50;100947.00;5071102;28;20043;-76
2022/07/21 06:55:03;;;;;;;5.72;4.28;;;;;;;30.66;32.48;100946.59;5071261;28;20040;-76
2022/07/21 06:57:32;;;;;;;6.80;4.10;;;;;;;30.80;32.50;100957.81;5071473;28;20056;-76
2022/07/21 07:00:00;;;;;;;7.53;3.90;;;;;;;30.91;32.70;100956.97;5070660;28;20060;-76
2022/07/21 07:02:29;;;;;;;5.22;3.50;;;;;;;30.96;30.33;100957.34;5070528;28;20047;-77
2022/07/21 07:04:58;;;;;;;4.15;3.40;;;;;;;31.02;30.46;100952.06;5069784;28;20053;-76
2022/07/21 07:07:34;;;;;;;5.53;3.20;;;;;;;31.03;29.23;100953.66;5070681;28;20043;-76
2022/07/21 07:10:03;;;;;;;3.72;2.58;;;;;;;30.94;28.84;100968.25;5070625;28;20060;-76
2022/07/21 07:12:31;;;;;;;3.22;2.88;;;;;;;31.07;29.34;100962.94;5070750;28;20044;-76
2022/07/21 07:15:19;;;;;;;2.90;2.35;;;;;;;31.06;27.38;100958.50;5069981;28;20060;-76
2022/07/21 07:17:47;;;;;;;2.53;2.33;;;;;;;31.15;28.55;100960.03;5070027;28;20406;-76
2022/07/21 07:20:15;;;;;;;4.18;2.72;;;;;;;31.36;27.93;100959.13;5071445;28;20056;-76
2022/07/21 07:22:43;;;;;;;4.97;2.35;;;;;;;31.34;28.29;100962.38;5070774;28;20036;-75
2022/07/21 07:25:11;;;;;;;3.55;2.67;;;;;;;31.20;28.21;100960.44;5069885;28;20052;-76
2022/07/21 07:27:38;;;;;;;3.30;2.72;;;;;;;31.37;27.87;100964.34;5070042;28;20406;-76
2022/07/21 07:30:07;;;;;;;2.20;2.03;;;;;;;31.41;28.00;100955.84;5070286;28;20045;-77
2022/07/21 07:32:36;;;;;;;3.17;2.28;;;;;;;31.53;27.48;100960.22;5071381;28;20395;-76
2022/07/21 07:35:05;;;;;;;2.97;2.30;;;;;;;31.68;28.18;100948.75;5069036;28;20052;-76
2022/07/21 07:37:34;;;;;;;3.55;2.40;;;;;;;31.58;26.83;100959.75;5071235;28;20513;-76
2022/07/21 07:40:08;;;;;;;3.28;2.35;;;;;;;31.76;26.86;100948.25;5057370;28;20490;-76
2022/07/21 07:42:37;;;;;;;2.03;1.77;;;;;;;31.89;26.26;100944.94;5070327;28;20048;-75
2022/07/21 07:45:07;;;;;;;3.65;1.83;;;;;;;31.86;26.51;100945.78;5069865;28;20102;-76
2022/07/21 07:47:35;;;;;;;3.33;2.05;;;;;;;31.90;26.56;100949.38;5070568;28;20052;-76
2022/07/21 07:50:05;;;;;;;1.95;1.85;;;;;;;32.05;27.51;100941.53;5070840;28;20510;-76
2022/07/21 07:52:33;;;;;;;2.88;2.30;;;;;;;32.06;28.08;100943.16;5070436;28;20123;-76
2022/07/21 07:55:04;;;;;;;3.90;2.42;;;;;;;31.83;29.05;100940.94;5069596;28;20048;-76
2022/07/21 07:57:34;;;;;;;3.22;2.60;;;;;;;32.00;28.34;100936.31;5070959;28;20047;-76
2022/07/21 08:00:09;;;;;;;4.07;2.28;;;;;;;32.09;29.57;100938.66;5070497;28;20059;-76
2022/07/21 08:02:56;;;;;;;;;;;;;;;32.09;29.40;100933.81;5071195;28;20037;-76
2022/07/21 08:05:24;;;;;;;3.05;2.40;;;;;;;32.16;29.53;100939.38;5069773;28;19920;-76
2022/07/21 08:07:52;;;;;;;4.15;2.63;;;;;;;32.23;29.56;100940.53;5070321;28;20913;-76
2022/07/21 08:10:20;;;;;;;2.80;2.50;;;;;;;32.23;29.66;100938.50;5070888;28;20047;-76
2022/07/21 08:13:08;;;;;;;3.00;2.80;;;;;;;32.17;30.33;100929.66;5070742;28;20036;-76
2022/07/21 08:15:37;;;;;;;4.53;3.00;;;;;;;32.23;30.40;100929.19;5069499;28;20060;-76
2022/07/21 08:18:06;;;;;;;5.38;2.95;;;;;;;32.23;30.43;100932.03;5070080;28;20390;-76
2022/07/21 08:20:35;;;;;;;7.57;3.08;;;;;;;32.35;30.29;100925.03;5071015;28;20055;-75
2022/07/21 08:23:03;;;;;;;3.90;3.50;;;;;;;32.44;31.02;100928.97;5049010;28;20474;-76
2022/07/21 08:25:31;;;;;;;3.10;2.80;;;;;;;32.44;28.59;100928.97;5063441;28;20032;-76
2022/07/21 08:27:59;;;;;;;7.35;3.28;;;;;;;32.52;30.32;100934.53;5069928;28;20045;-76
2022/07/21 08:30:28;;;;;;;8.38;3.70;;;;;;;32.60;31.02;100930.41;5072744;28;20059;-76
2022/07/21 08:32:58;;;;;;;4.85;3.20;;;;;;;32.69;30.40;100933.50;5073402;28;20048;-76
2022/07/21 08:35:27;;;;;;;4.72;2.55;;;;;;;32.57;30.40;100936.91;5073583;28;20487;-76
2022/07/21 08:38:05;;;;;;;2.72;2.53;;;;;;;32.62;29.77;100921.44;5073681;28;20045;-76
2022/07/21 08:40:36;;;;;;;4.72;3.22;;;;;;;32.71;30.03;100931.03;5073716;28;20483;-76
2022/07/21 08:43:06;;;;;;;6.20;3.00;;;;;;;32.69;30.08;100927.81;5072575;28;20049;-75
2022/07/21 08:45:35;;;;;;;5.20;2.80;;;;;;;32.88;30.34;100928.38;5074508;28;20045;-76
2022/07/21 08:48:04;;;;;;;3.42;3.05;;;;;;;32.95;29.35;100925.41;5073557;28;20047;-76
2022/07/21 08:50:36;;;;;;;2.95;2.60;;;;;;;32.91;28.35;100926.72;5073963;28;20506;-76
2022/07/21 08:53:04;;;;;;;5.45;2.88;;;;;;;33.10;27.57;100933.75;5072330;28;20059;-76
2022/07/21 08:55:33;;;;;;;6.00;2.47;;;;;;;33.04;27.94;100929.78;5073946;28;20049;-76
2022/07/21 08:58:03;;;;;;;7.50;2.83;;;;;;;33.12;27.84;100925.59;5072651;28;20044;-76
2022/07/21 09:00:35;;;;;;;3.42;2.00;;;;;;;33.10;27.79;100928.06;5073013;28;20060;-76
2022/07/21 09:03:22;;;;;;;2.65;2.08;;;;;;;33.23;27.42;100937.56;5073665;28;20048;-76
2022/07/21 09:06:06;;;;;;;3.00;1.90;;;;;;;33.41;26.36;100939.31;5072070;28;20056;-77
2022/07/21 09:08:50;;;;;;;2.10;1.90;;;;;;;33.46;26.97;100926.66;5073357;28;20056;-76
2022/07/21 09:11:22;;;;;;;4.78;2.42;;;;;;;33.45;27.55;100925.88;5073518;28;20036;-77
2022/07/21 09:14:08;;;;;;;3.95;2.35;;;;;;;33.50;26.75;100927.41;5073392;28;20037;-76
2022/07/21 09:16:42;;;;;;;2.38;2.10;;;;;;;33.75;26.58;100927.00;5055771;28;20056;-76
2022/07/21 09:19:26;;;;;;;2.00;1.80;;;;;;;33.82;26.07;100931.72;5072812;28;20044;-76
2022/07/21 09:21:59;;;;;;;3.78;2.40;;;;;;;33.66;26.19;100923.91;5072463;28;20048;-76
2022/07/21 09:24:38;;;;;;;;;;;;;;;33.64;25.91;100932.88;5073698;28;20041;-76
2022/07/21 09:27:12;;;;;;;3.38;2.13;;;;;;;33.80;25.92;100936.25;5055105;28;19935;-77
2022/07/21 09:29:45;;;;;;;2.20;2.00;;;;;;;33.83;26.48;100929.69;5073516;28;20510;-77
2022/07/21 09:32:20;;;;;;;2.60;2.17;;;;;;;33.96;26.31;100927.03;5071788;28;20407;-76
2022/07/21 09:34:51;;;;;;;4.72;2.38;;;;;;;34.08;26.66;100922.75;5072306;28;20059;-76
2022/07/21 09:37:21;;;;;;;3.47;2.33;;;;;;;34.22;26.78;100919.63;5072351;28;20428;-77
2022/07/21 09:39:56;;;;;;;2.13;2.03;;;;;;;34.17;25.80;100912.41;5073134;28;20045;-76
2022/07/21 09:42:32;;;;;;;1.98;1.73;;;;;;;34.09;25.90;100918.66;5071396;28;20402;-76
2022/07/21 09:45:04;;;;;;;3.97;1.85;;;;;;;34.24;26.19;100914.31;5054820;28;20056;-76
2022/07/21 09:47:33;;;;;;;2.30;1.83;;;;;;;34.15;26.30;100914.09;5073446;28;20049;-76
2022/07/21 09:50:02;;;;;;;2.25;2.03;;;;;;;34.36;25.89;100914.88;5073191;28;20036;-76
2022/07/21 09:52:53;;;;;;;5.25;2.15;;;;;;;34.53;25.46;100929.94;5071790;28;20056;-76
2022/07/21 09:55:21;;;;;;;4.05;2.05;;;;;;;34.28;25.53;100906.53;5041204;28;20041;-76
2022/07/21 09:57:49;;;;;;;2.50;1.95;;;;;;;34.28;25.29;100909.38;5071745;28;20052;-76
2022/07/21 10:00:19;;;;;;;2.67;1.70;;;;;;;34.37;25.23;100913.63;5072948;28;20458;-77
2022/07/21 10:02:49;;;;;;;2.22;2.00;;;;;;;34.67;25.15;100914.63;5071411;28;20590;-76
2022/07/21 10:05:20;;;;;;;3.97;1.73;;;;;;;34.66;24.65;100915.88;5071404;28;20695;-76
2022/07/21 10:08:01;;;;;;;2.17;1.65;;;;;;;34.67;24.87;100909.75;5072301;28;20040;-76
2022/07/21 10:10:29;;;;;;;1.92;1.40;;;;;;;34.93;24.89;100917.69;5071685;28;20363;-76
2022/07/21 10:13:17;;;;;;;1.70;1.60;;;;;;;35.06;24.29;100912.09;5071592;28;20510;-77
2022/07/21 10:15:47;;;;;;;2.28;1.80;;;;;;;34.92;23.65;100911.22;5072386;28;20048;-76
2022/07/21 10:18:18;;;;;;;3.72;1.98;;;;;;;34.88;23.37;100915.38;5072041;28;20491;-76
2022/07/21 10:20:52;;;;;;;1.77;1.67;;;;;;;34.85;23.61;100900.03;5069889;28;20056;-77
2022/07/21 10:23:38;;;;;;;2.78;1.58;;;;;;;35.01;24.14;100910.59;5054502;28;20060;-77
2022/07/21 10:26:06;;;;;;;1.50;1.40;;;;;;;35.18;24.11;100913.47;5066652;28;20399;-77
2022/07/21 10:28:35;;;;;;;2.45;1.75;;;;;;;35.15;23.65;100914.34;5070191;28;20056;-76
2022/07/21 10:31:22;;;;;;;1.70;1.60;;;;;;;35.20;23.14;100911.78;5068105;28;20045;-77
2022/07/21 10:33:51;;;;;;;2.58;1.63;;;;;;;35.24;23.58;100925.91;5065907;28;20045;-77
2022/07/21 10:36:28;;;;;;;3.63;1.80;;;;;;;35.31;23.47;100917.19;5071420;28;20044;-77
2022/07/21 10:39:08;;;;;;;2.05;1.85;;;;;;;35.11;23.24;100915.25;5071078;28;20048;-77
2022/07/21 10:41:42;;;;;;;1.88;1.67;;;;;;;35.30;22.63;100915.59;5065589;28;20045;-77
2022/07/21 10:44:28;;;;;;;2.05;1.55;;;;;;;35.45;22.10;100909.53;5069579;28;20033;-77
2022/07/21 10:47:07;;;;;;;5.63;1.90;;;;;;;35.39;22.39;100906.44;5060103;28;20044;-77
2022/07/21 10:49:51;;;;;;;2.72;1.70;;;;;;;35.63;21.92;100907.03;5070291;28;20048;-76
2022/07/21 10:52:45;;;;;;;10.13;1.83;;;;;;;36.23;21.34;100895.66;5071421;28;20523;-76
2022/07/21 10:55:16;;;;;;;;;;;;;;;36.69;21.24;100892.63;5056749;28;20053;-76
2022/07/21 10:58:08;;;;;;;2.05;1.83;;;;;;;36.96;20.64;100899.94;5071076;28;19921;-77
2022/07/21 11:00:36;;;;;;;2.13;1.75;;;;;;;37.21;20.91;100899.13;5071760;28;20055;-76
2022/07/21 11:03:17;;;;;;;5.88;1.60;;;;;;;36.94;20.14;100893.91;5070053;28;20059;-78
2022/07/21 11:06:19;;;;;;;3.85;1.90;;;;;;;36.80;20.76;100884.53;5069671;28;20529;-78
2022/07/21 11:09:04;;;;;;;2.42;1.67;;;;;;;36.71;20.91;100890.16;5053717;28;20048;-78
2022/07/21 11:12:03;;;;;;;1.80;1.40;;;;;;;37.09;19.45;100885.66;5071086;28;20045;-77
2022/07/21 11:14:41;;;;;;;2.22;1.50;;;;;;;37.06;19.63;100881.66;5069979;28;20056;-77
2022/07/21 11:17:30;;;;;;;1.35;1.25;;;;;;;37.43;18.53;100883.31;5053550;28;20044;-78
2022/07/21 11:19:58;;;;;;;4.85;1.83;;;;;;;37.35;18.83;100883.56;5057261;28;20048;-78
2022/07/21 11:22:29;;;;;;;1.67;1.58;;;;;;;37.54;18.53;100880.88;5066996;28;20146;-77
2022/07/21 11:25:06;;;;;;;2.40;1.50;;;;;;;37.58;18.21;100877.91;5070558;28;20045;-77
2022/07/21 11:27:36;;;;;;;1.52;1.42;;;;;;;37.74;18.41;100871.22;5069409;28;20044;-77
2022/07/21 11:30:07;;;;;;;1.83;1.70;;;;;;;37.90;18.25;100868.19;5070791;28;20071;-77
2022/07/21 11:32:36;;;;;;;4.43;2.30;;;;;;;37.96;16.96;100862.66;5071424;28;20044;-77
2022/07/21 11:35:06;;;;;;;2.33;1.77;;;;;;;38.21;17.38;100860.13;5069815;28;20051;-78
2022/07/21 11:37:41;;;;;;;2.63;1.98;;;;;;;38.25;17.94;100855.88;5069532;28;20491;-77
2022/07/21 11:40:12;;;;;;;3.08;1.65;;;;;;;38.14;17.48;100861.19;5071427;28;20049;-78
2022/07/21 11:42:43;;;;;;;1.85;1.73;;;;;;;38.36;17.55;100858.28;5064254;28;20498;-77